Etusivu
METAR-TAF:

METAR-TAF

Lentoasemat :

Sfax, Tunisia

Leveyspiiri: 34-43N, Pituuspiiri: 010-41E, korkeus merenpinnasta: 21 m

Tämänhetkinen sää

Tämä raportti tehtiin 37 minuuttia sitten, kello 10.00 UTC
Tuuli 7 kn koillisesta, vaihdellen pohjoisen/luoteen ja idän välillä
Lämpötila 27°C
Kosteus 45%
Ilmanpaine 1015 hPa
Näkyvyys 10 km tai enemmän
Muutamia pilviä 2000 ft:n korkeudessa

METAR: DTTX 311000Z 04007KT 340V080 9999 FEW020 27/14 Q1015

Aika: 11:37 (10:37 UTC)

Sääennuste

Tämä raportti tehtiin 5 tuntia ja 37 minuuttia sitten, kello 05.00 UTC
Ennuste voimassa 31. päivästä klo 06 UTC - 01. päivään klo 06 UTC
Tuuli 7 kn pohjoisesta
Näkyvyys 10 km tai enemmän
Muutamia pilviä 3300 ft:n korkeudessa
Tulossa
31. päivästä klo 12 UTC - 31. päivään klo 14 UTC
Tuuli 12 kn idästä
Tulossa
31. päivästä klo 22 UTC - 31. päivään klo 24 UTC
Tuuli 2 kn idästä

TAF: DTTX 310500Z 3106/0106 01007KT 9999 FEW033 BECMG 3112/3114 10012KT BECMG 3122/3124 08002KT

Säähavainnot ja -ennusteet yli 4000 lentoasemalta (METAR- ja TAF-raportit).

Käytössä olevat sääasemat on merkitty karttaan keltaisilla ja punaisilla pisteillä.

Aseta hiiri pisteen päälle nähdäksesi sääaseman nimen.

Klikkaa sitten nähdäksesi säähavainnot ja -ennusteet.

Kartan vaihtaminen: klikkaa mustalla rastilla varustettuja vihreitä pisteitä, niin voit zoomata sisään; viivalla varustettua vihreää pistettä, niin voit zoomata ulos tai vihreitä nuolia, niin pääset viereisille kartoille.


METAR-TAF: